createdAt,value
2019-05-06T00:04:18.274Z,79.89
2019-05-06T00:14:23.544Z,80.38
2019-05-06T00:24:30.694Z,80.55
2019-05-06T00:34:35.266Z,81.33
2019-05-06T00:44:39.706Z,82.44
2019-05-06T00:54:44.254Z,82.23
2019-05-06T01:04:48.833Z,81.73
2019-05-06T01:14:54.923Z,81.22
2019-05-06T01:24:59.390Z,80.86
2019-05-06T01:35:04.768Z,80.83
2019-05-06T01:45:10.531Z,81.36
2019-05-06T01:55:16.549Z,81.30
2019-05-06T02:05:24.194Z,81.24
2019-05-06T02:15:28.384Z,82.65
2019-05-06T02:25:34.486Z,82.44
2019-05-06T02:35:46.841Z,82.64
2019-05-06T02:45:53.070Z,82.90
2019-05-06T02:55:57.911Z,81.75
2019-05-06T03:06:03.835Z,80.58
2019-05-06T03:16:08.619Z,79.66
2019-05-06T03:26:13.810Z,78.69
2019-05-06T03:36:25.952Z,77.63
2019-05-06T03:46:43.118Z,77.25
2019-05-06T03:56:48.223Z,77.07
2019-05-06T04:06:53.717Z,76.96
2019-05-06T04:17:13.151Z,76.89
2019-05-06T04:27:43.071Z,75.95
2019-05-06T04:37:47.968Z,75.00
2019-05-06T04:47:53.705Z,73.75
2019-05-06T04:57:58.741Z,72.61
2019-05-06T05:08:04.256Z,72.04
2019-05-06T05:18:13.239Z,70.20
2019-05-06T05:28:18.871Z,70.37
2019-05-06T05:38:23.653Z,69.30
2019-05-06T05:48:32.772Z,69.49
2019-05-06T05:58:37.587Z,67.79
2019-05-06T06:08:43.277Z,66.58
2019-05-06T06:19:05.824Z,64.78
2019-05-06T06:29:12.483Z,65.19
2019-05-06T06:39:27.627Z,65.04
2019-05-06T06:49:32.860Z,63.86
2019-05-06T06:59:42.854Z,63.72
2019-05-06T07:09:47.334Z,63.26
2019-05-06T07:19:53.450Z,62.84
2019-05-06T07:29:58.019Z,63.31
2019-05-06T07:40:05.401Z,55.85
2019-05-06T07:50:13.111Z,52.61
2019-05-06T08:00:17.934Z,52.81
2019-05-06T08:10:22.522Z,51.56
2019-05-06T08:20:39.426Z,48.25
2019-05-06T08:30:45.060Z,49.86
2019-05-06T08:40:49.541Z,48.37
2019-05-06T08:50:56.792Z,48.08
2019-05-06T09:01:05.894Z,48.23
2019-05-06T09:11:12.221Z,49.18
2019-05-06T09:21:16.806Z,44.48
2019-05-06T09:31:25.830Z,43.75
2019-05-06T09:41:32.405Z,39.78
2019-05-06T09:51:36.493Z,42.39
2019-05-06T10:01:43.545Z,45.74
2019-05-06T10:11:47.510Z,45.74
2019-05-06T10:21:53.086Z,44.88
2019-05-06T10:32:08.696Z,42.48
2019-05-06T10:42:16.298Z,40.52
2019-05-06T10:52:22.546Z,37.63
2019-05-06T11:02:34.728Z,36.22
2019-05-06T11:12:39.273Z,36.31
2019-05-06T11:22:45.084Z,37.62
2019-05-06T11:32:57.010Z,39.72
2019-05-06T11:43:01.649Z,39.78
2019-05-06T11:53:06.219Z,38.67
2019-05-06T12:03:12.761Z,37.87
2019-05-06T12:13:17.425Z,36.83
2019-05-06T12:23:22.463Z,36.25
2019-05-06T12:33:29.165Z,34.99
2019-05-06T12:43:35.281Z,33.62
2019-05-06T12:53:39.828Z,31.36
2019-05-06T13:03:44.424Z,35.06
2019-05-06T13:13:57.551Z,33.18
2019-05-06T13:23:57.112Z,42.49
2019-05-06T13:34:06.353Z,48.79
2019-05-06T13:44:13.454Z,45.54
2019-05-06T13:54:18.295Z,44.07
2019-05-06T14:04:24.085Z,45.67
2019-05-06T14:14:28.793Z,44.16
2019-05-06T14:24:34.684Z,47.18
2019-05-06T14:34:39.148Z,48.35
2019-05-06T14:44:43.815Z,49.65
2019-05-06T14:54:50.112Z,46.50
2019-05-06T15:04:55.042Z,47.11
2019-05-06T15:14:59.515Z,47.11
2019-05-06T15:25:05.557Z,47.65
2019-05-06T15:35:28.340Z,46.25
2019-05-06T15:45:33.084Z,48.20
2019-05-06T15:55:37.574Z,49.77
2019-05-06T16:05:43.694Z,49.31
2019-05-06T16:15:49.952Z,49.69
2019-05-06T16:25:54.542Z,49.26
2019-05-06T16:35:59.258Z,49.20
2019-05-06T16:46:03.921Z,50.48
2019-05-06T16:56:19.371Z,53.48
2019-05-06T17:06:28.342Z,52.28
2019-05-06T17:16:34.035Z,54.61
2019-05-06T17:26:38.891Z,54.90
2019-05-06T17:36:44.415Z,55.69
2019-05-06T17:46:53.155Z,58.69
2019-05-06T17:57:01.439Z,57.55
2019-05-06T18:07:05.301Z,56.44
2019-05-06T18:17:12.314Z,55.60
2019-05-06T18:27:16.275Z,53.93
2019-05-06T18:37:23.375Z,52.99
2019-05-06T18:47:28.185Z,49.42
2019-05-06T18:57:33.126Z,49.21
2019-05-06T19:07:39.462Z,50.40
2019-05-06T19:17:44.459Z,51.64
2019-05-06T19:27:50.035Z,53.10
2019-05-06T19:37:54.642Z,55.04
2019-05-06T19:47:59.317Z,56.80
2019-05-06T19:58:04.083Z,59.17
2019-05-06T20:08:16.359Z,62.39
2019-05-06T20:18:21.116Z,63.26
2019-05-06T20:28:25.634Z,63.73
2019-05-06T20:38:30.209Z,64.19
2019-05-06T20:48:34.849Z,64.62
2019-05-06T20:58:39.289Z,65.02
2019-05-06T21:08:43.809Z,65.86
2019-05-06T21:18:48.393Z,68.65
2019-05-06T21:28:52.922Z,70.74
2019-05-06T21:38:57.410Z,70.06
2019-05-06T21:49:01.904Z,70.90
2019-05-06T21:59:06.479Z,71.59
2019-05-06T22:09:13.156Z,73.65
2019-05-06T22:19:20.811Z,75.43
2019-05-06T22:29:25.251Z,75.93
2019-05-06T22:39:31.705Z,77.50
2019-05-06T22:49:35.856Z,79.49
2019-05-06T22:59:42.346Z,78.93
2019-05-06T23:09:46.595Z,80.74
2019-05-06T23:19:52.804Z,81.59
2019-05-06T23:29:57.281Z,83.50
2019-05-06T23:40:39.731Z,82.40
2019-05-06T23:51:22.335Z,80.63
